createdAt,value
2019-02-25T00:00:32.578Z,43.90
2019-02-25T00:03:02.797Z,51.73
2019-02-25T00:05:36.811Z,49.88
2019-02-25T00:08:07.646Z,42.45
2019-02-25T00:10:38.383Z,32.00
2019-02-25T00:13:09.847Z,32.73
2019-02-25T00:15:40.471Z,21.02
2019-02-25T00:18:11.492Z,15.48
2019-02-25T00:20:42.549Z,15.68
2019-02-25T00:23:13.183Z,15.48
2019-02-25T00:25:44.226Z,19.15
2019-02-25T00:28:17.723Z,16.77
2019-02-25T00:30:49.047Z,14.40
2019-02-25T00:33:21.374Z,15.83
2019-02-25T00:35:51.937Z,15.55
2019-02-25T00:38:22.894Z,18.60
2019-02-25T00:40:56.406Z,11.70
2019-02-25T00:43:26.908Z,34.60
2019-02-25T00:45:57.537Z,37.40
2019-02-25T00:48:30.519Z,22.40
2019-02-25T00:51:04.221Z,19.92
2019-02-25T00:53:34.929Z,17.65
2019-02-25T00:56:05.228Z,19.00
2019-02-25T00:58:35.248Z,17.00
2019-02-25T01:01:08.024Z,12.18
2019-02-25T01:03:38.461Z,14.73
2019-02-25T01:06:15.487Z,18.77
2019-02-25T01:08:48.349Z,18.07
2019-02-25T01:11:25.410Z,14.58
2019-02-25T01:14:01.460Z,13.50
2019-02-25T01:16:32.828Z,14.85
2019-02-25T01:19:04.988Z,14.65
2019-02-25T01:21:35.514Z,14.98
2019-02-25T01:24:06.808Z,15.20
2019-02-25T01:26:37.602Z,11.83
2019-02-25T01:29:08.436Z,15.68
2019-02-25T01:31:41.527Z,13.68
2019-02-25T01:34:14.661Z,14.75
2019-02-25T01:36:45.563Z,14.95
2019-02-25T01:39:16.402Z,12.70
2019-02-25T01:41:47.233Z,15.65
2019-02-25T01:44:17.723Z,14.63
2019-02-25T01:46:48.127Z,14.87
2019-02-25T01:49:26.810Z,12.88
2019-02-25T01:51:59.080Z,14.80
2019-02-25T01:54:29.610Z,12.40
2019-02-25T01:57:00.378Z,17.30
2019-02-25T01:59:31.346Z,26.48
2019-02-25T02:02:07.207Z,25.97
2019-02-25T02:04:38.894Z,29.60
2019-02-25T02:07:19.262Z,29.32
2019-02-25T02:09:51.132Z,35.05
2019-02-25T02:12:28.690Z,24.63
2019-02-25T02:14:59.849Z,24.25
2019-02-25T02:17:33.020Z,25.62
2019-02-25T02:20:04.305Z,19.77
2019-02-25T02:22:38.073Z,17.42
2019-02-25T02:25:10.089Z,19.73
2019-02-25T02:27:40.500Z,15.13
2019-02-25T02:30:18.013Z,16.97
2019-02-25T02:32:51.904Z,16.00
2019-02-25T02:35:22.213Z,15.80
2019-02-25T02:37:57.982Z,14.30
2019-02-25T02:40:28.820Z,15.53
2019-02-25T02:43:01.176Z,16.75
2019-02-25T02:45:41.448Z,13.18
2019-02-25T02:48:18.740Z,17.82
2019-02-25T02:50:49.711Z,19.40
2019-02-25T02:53:21.744Z,17.00
2019-02-25T02:55:51.785Z,12.70
2019-02-25T02:58:22.394Z,18.05
2019-02-25T03:00:53.648Z,15.00
2019-02-25T03:03:26.936Z,19.52
2019-02-25T03:06:01.360Z,15.40
2019-02-25T03:08:29.837Z,14.50
2019-02-25T03:11:03.136Z,12.33
2019-02-25T03:13:33.458Z,14.40
2019-02-25T03:16:07.154Z,17.32
2019-02-25T03:18:40.054Z,14.45
2019-02-25T03:21:12.015Z,18.67
2019-02-25T03:23:44.669Z,18.65
2019-02-25T03:26:15.500Z,14.95
2019-02-25T03:28:49.029Z,17.05
2019-02-25T03:31:23.583Z,15.23
2019-02-25T03:33:54.177Z,24.25
2019-02-25T03:36:27.669Z,20.00
2019-02-25T03:38:57.978Z,21.07
2019-02-25T03:41:32.103Z,20.40
2019-02-25T03:44:02.418Z,19.90
2019-02-25T03:46:33.156Z,17.75
2019-02-25T03:49:03.821Z,22.60
2019-02-25T03:51:38.461Z,20.12
2019-02-25T03:54:09.486Z,21.40
2019-02-25T03:56:39.064Z,15.72
2019-02-25T03:59:12.996Z,18.02
2019-02-25T04:01:43.387Z,16.90
2019-02-25T04:04:14.064Z,17.62
2019-02-25T04:06:47.201Z,17.70
2019-02-25T04:09:17.580Z,17.17
2019-02-25T04:11:48.226Z,19.15
2019-02-25T04:14:19.153Z,15.48
2019-02-25T04:16:52.862Z,17.67
2019-02-25T04:19:23.121Z,16.00
2019-02-25T04:21:54.844Z,15.20
2019-02-25T04:24:26.708Z,15.93
2019-02-25T04:27:01.227Z,19.45
2019-02-25T04:29:31.827Z,13.88
2019-02-25T04:32:02.382Z,15.83
2019-02-25T04:34:32.939Z,14.93
2019-02-25T04:37:10.547Z,20.40
2019-02-25T04:39:42.479Z,21.35
2019-02-25T04:42:16.591Z,14.15
2019-02-25T04:44:48.056Z,20.90
2019-02-25T04:47:18.789Z,17.25
2019-02-25T04:49:53.305Z,16.75
2019-02-25T04:52:23.855Z,20.08
2019-02-25T04:54:53.954Z,20.80
2019-02-25T04:57:26.193Z,16.55
2019-02-25T04:59:56.550Z,16.35
2019-02-25T05:02:33.119Z,17.50
2019-02-25T05:05:02.521Z,17.90
2019-02-25T05:07:32.645Z,16.05
2019-02-25T05:10:03.611Z,12.25
2019-02-25T05:12:37.146Z,17.37
2019-02-25T05:15:08.105Z,14.85
2019-02-25T05:17:45.996Z,15.55
2019-02-25T05:20:16.457Z,14.30
2019-02-25T05:22:50.289Z,15.30
2019-02-25T05:25:20.900Z,13.30
2019-02-25T05:27:51.445Z,12.50
2019-02-25T05:30:21.779Z,16.42
2019-02-25T05:32:51.427Z,15.08
2019-02-25T05:35:23.635Z,13.95
2019-02-25T05:37:53.643Z,14.05
2019-02-25T05:40:27.399Z,18.50
2019-02-25T05:42:58.036Z,16.62
2019-02-25T05:45:28.530Z,19.42
2019-02-25T05:47:58.569Z,15.75
2019-02-25T05:50:29.269Z,16.37
2019-02-25T05:53:00.800Z,18.95
2019-02-25T05:55:31.990Z,21.17
2019-02-25T05:58:05.052Z,25.32
2019-02-25T06:00:35.719Z,19.05
2019-02-25T06:03:06.126Z,23.05
2019-02-25T06:05:36.485Z,20.80
2019-02-25T06:08:09.497Z,23.55
2019-02-25T06:10:39.783Z,31.37
2019-02-25T06:13:12.873Z,27.80
2019-02-25T06:15:43.083Z,22.87
2019-02-25T06:18:15.454Z,24.43
2019-02-25T06:20:49.873Z,25.52
2019-02-25T06:23:21.929Z,31.95
2019-02-25T06:25:52.266Z,33.90
2019-02-25T06:28:21.780Z,26.23
2019-02-25T06:30:52.704Z,21.57
2019-02-25T06:33:22.341Z,25.12
2019-02-25T06:35:52.564Z,22.75
2019-02-25T06:38:22.327Z,25.12
2019-02-25T06:40:52.561Z,21.27
2019-02-25T06:43:22.272Z,22.50
2019-02-25T06:45:52.121Z,21.95
2019-02-25T06:48:22.010Z,24.85
2019-02-25T06:50:51.608Z,23.87
2019-02-25T06:53:21.742Z,23.75
2019-02-25T06:55:51.483Z,19.00
2019-02-25T06:58:22.983Z,21.52
2019-02-25T07:00:52.517Z,18.98
2019-02-25T07:03:22.083Z,17.30
2019-02-25T07:06:05.943Z,17.10
2019-02-25T07:08:57.747Z,22.35
2019-02-25T07:11:36.747Z,26.90
2019-02-25T07:14:31.162Z,18.12
2019-02-25T07:17:08.042Z,27.22
2019-02-25T07:19:56.528Z,23.35
2019-02-25T07:22:44.186Z,22.62
2019-02-25T07:25:31.979Z,21.45
2019-02-25T07:28:19.203Z,20.27
2019-02-25T07:30:59.964Z,22.65
2019-02-25T07:33:51.470Z,23.95
2019-02-25T07:36:38.988Z,19.50
2019-02-25T07:39:27.127Z,21.82
2019-02-25T07:42:15.887Z,28.60
2019-02-25T07:45:01.273Z,22.75
2019-02-25T07:48:05.282Z,19.32
2019-02-25T07:51:00.196Z,17.98
2019-02-25T07:53:52.204Z,19.50
2019-02-25T07:56:42.149Z,19.67
2019-02-25T07:59:18.242Z,20.10
2019-02-25T08:02:04.834Z,23.77
2019-02-25T08:04:56.865Z,17.02
2019-02-25T08:07:45.826Z,17.62
2019-02-25T08:10:33.040Z,19.37
2019-02-25T08:13:16.323Z,20.52
2019-02-25T08:16:17.308Z,21.10
2019-02-25T08:22:16.122Z,24.30
2019-02-25T08:24:54.964Z,14.80
2019-02-25T08:27:31.559Z,16.27
2019-02-25T08:30:29.586Z,18.48
2019-02-25T08:33:10.970Z,30.20
2019-02-25T08:36:42.523Z,23.10
2019-02-25T08:39:25.645Z,22.82
2019-02-25T08:42:01.811Z,21.48
2019-02-25T08:44:42.567Z,29.25
2019-02-25T08:47:36.240Z,16.60
2019-02-25T08:50:08.642Z,15.13
2019-02-25T08:52:38.340Z,15.00
2019-02-25T08:55:09.243Z,16.52
2019-02-25T08:57:39.004Z,17.27
2019-02-25T09:00:11.162Z,12.10
2019-02-25T09:02:40.920Z,19.10
2019-02-25T09:05:12.248Z,24.07
2019-02-25T09:07:42.879Z,23.50
2019-02-25T09:10:13.628Z,20.03
2019-02-25T09:12:43.205Z,18.90
2019-02-25T09:15:13.443Z,14.80
2019-02-25T09:17:45.036Z,13.63
2019-02-25T09:20:15.541Z,21.60
2019-02-25T09:22:45.295Z,16.20
2019-02-25T09:25:14.916Z,16.10
2019-02-25T09:31:15.239Z,20.43
2019-02-25T09:33:44.999Z,28.03
2019-02-25T09:36:14.637Z,16.03
2019-02-25T09:38:44.438Z,16.73
2019-02-25T09:41:17.039Z,21.47
2019-02-25T09:43:46.799Z,13.50
2019-02-25T09:46:16.441Z,15.13
2019-02-25T09:48:46.322Z,15.70
2019-02-25T09:51:15.988Z,12.67
2019-02-25T09:53:45.844Z,15.97
2019-02-25T09:56:15.481Z,15.40
2019-02-25T09:58:44.977Z,22.87
2019-02-25T10:01:14.762Z,16.70
2019-02-25T10:03:44.496Z,16.23
2019-02-25T10:06:14.041Z,13.03
2019-02-25T10:08:43.911Z,13.30
2019-02-25T10:11:13.517Z,16.03
2019-02-25T10:13:43.443Z,19.00
2019-02-25T10:16:13.036Z,12.90
2019-02-25T10:18:42.719Z,20.83
2019-02-25T10:21:12.454Z,13.70
2019-02-25T10:23:42.163Z,15.27
2019-02-25T10:26:11.880Z,14.53
2019-02-25T10:28:41.800Z,24.70
2019-02-25T10:31:13.046Z,21.30
2019-02-25T10:33:42.840Z,20.13
2019-02-25T10:36:12.601Z,13.43
2019-02-25T10:38:42.049Z,13.50
2019-02-25T10:41:11.858Z,12.50
2019-02-25T10:43:41.467Z,16.13
2019-02-25T10:46:13.479Z,14.03
2019-02-25T10:48:42.734Z,10.70
2019-02-25T10:51:13.695Z,13.67
2019-02-25T10:53:45.117Z,11.77
2019-02-25T10:56:21.737Z,14.33
2019-02-25T10:58:51.594Z,15.37
2019-02-25T11:01:22.345Z,9.90
2019-02-25T11:03:54.181Z,7.90
2019-02-25T11:06:25.168Z,7.97
2019-02-25T11:09:23.039Z,8.73
2019-02-25T11:11:54.736Z,9.73
2019-02-25T11:14:24.156Z,7.73
2019-02-25T11:16:54.122Z,6.93
2019-02-25T11:19:25.012Z,11.93
2019-02-25T11:21:55.529Z,14.30
2019-02-25T11:24:25.548Z,9.33
2019-02-25T11:26:56.796Z,5.60
2019-02-25T11:29:26.497Z,5.80
2019-02-25T11:31:56.097Z,7.03
2019-02-25T11:34:25.714Z,6.60
2019-02-25T11:36:57.289Z,6.30
2019-02-25T11:39:27.535Z,8.13
2019-02-25T11:41:58.438Z,5.30
2019-02-25T11:44:31.198Z,7.77
2019-02-25T11:46:59.402Z,5.73
2019-02-25T11:49:29.084Z,5.67
2019-02-25T11:51:58.801Z,6.63
2019-02-25T11:54:29.161Z,6.70
2019-02-25T11:56:58.616Z,5.60
2019-02-25T11:59:30.597Z,6.13
2019-02-25T12:01:59.878Z,7.10
2019-02-25T12:04:29.519Z,11.33
2019-02-25T12:06:59.277Z,5.00
2019-02-25T12:09:29.164Z,12.00
2019-02-25T12:11:59.021Z,5.30
2019-02-25T12:14:28.498Z,14.63
2019-02-25T12:16:58.022Z,7.70
2019-02-25T12:19:27.836Z,6.60
2019-02-25T12:21:57.481Z,6.03
2019-02-25T12:24:26.935Z,10.10
2019-02-25T12:26:56.638Z,6.80
2019-02-25T12:29:26.375Z,5.90
2019-02-25T12:31:56.045Z,5.77
2019-02-25T12:34:25.779Z,5.77
2019-02-25T12:36:55.593Z,6.70
2019-02-25T12:39:25.322Z,8.10
2019-02-25T12:41:55.563Z,4.87
2019-02-25T12:44:25.235Z,10.30
2019-02-25T12:46:54.957Z,7.20
2019-02-25T12:49:24.720Z,17.33
2019-02-25T12:51:54.353Z,10.50
2019-02-25T12:54:23.878Z,8.73
2019-02-25T12:56:53.760Z,9.23
2019-02-25T12:59:23.334Z,8.77
2019-02-25T13:01:53.194Z,9.83
2019-02-25T13:04:23.037Z,15.97
2019-02-25T13:06:52.605Z,6.87
2019-02-25T13:09:22.315Z,14.23
2019-02-25T13:11:52.025Z,8.90
2019-02-25T13:14:21.935Z,10.53
2019-02-25T13:16:51.962Z,14.90
2019-02-25T13:19:21.567Z,7.53
2019-02-25T13:21:51.477Z,12.20
2019-02-25T13:24:21.241Z,12.73
2019-02-25T13:26:51.055Z,9.93
2019-02-25T13:29:20.699Z,11.70
2019-02-25T13:31:50.157Z,8.00
2019-02-25T13:34:20.036Z,10.53
2019-02-25T13:36:51.359Z,13.17
2019-02-25T13:39:20.968Z,7.70
2019-02-25T13:41:50.755Z,21.83
2019-02-25T13:44:20.282Z,9.50
2019-02-25T13:46:50.157Z,8.70
2019-02-25T13:49:20.036Z,12.33
2019-02-25T13:51:50.277Z,9.33
2019-02-25T13:54:20.044Z,8.50
2019-02-25T13:56:49.929Z,20.23
2019-02-25T13:59:19.799Z,12.87
2019-02-25T14:01:52.806Z,9.20
2019-02-25T14:04:22.770Z,10.67
2019-02-25T14:06:52.679Z,13.30
2019-02-25T14:09:22.078Z,24.83
2019-02-25T14:11:51.790Z,7.83
2019-02-25T14:14:22.436Z,10.23
2019-02-25T14:16:52.198Z,16.33
2019-02-25T14:19:21.838Z,15.30
2019-02-25T14:21:51.721Z,10.10
2019-02-25T14:24:21.957Z,14.67
2019-02-25T14:26:51.474Z,8.20
2019-02-25T14:29:21.610Z,10.50
2019-02-25T14:31:51.236Z,12.67
2019-02-25T14:34:21.113Z,18.83
2019-02-25T14:36:52.479Z,12.27
2019-02-25T14:39:27.758Z,5.77
2019-02-25T14:41:58.871Z,9.10
2019-02-25T14:44:32.430Z,8.30
2019-02-25T14:47:02.614Z,8.10
2019-02-25T14:49:32.557Z,10.33
2019-02-25T14:52:01.797Z,8.10
2019-02-25T14:54:32.270Z,7.37
2019-02-25T14:57:03.339Z,7.43
2019-02-25T14:59:33.119Z,7.40
2019-02-25T15:02:04.016Z,13.33
2019-02-25T15:04:35.810Z,7.20
2019-02-25T15:07:06.963Z,7.40
2019-02-25T15:09:39.227Z,8.93
2019-02-25T15:12:11.680Z,8.20
2019-02-25T15:14:40.716Z,10.73
2019-02-25T15:17:12.649Z,7.37
2019-02-25T15:19:42.913Z,7.70
2019-02-25T15:22:12.818Z,21.07
2019-02-25T15:24:44.436Z,8.90
2019-02-25T15:27:14.280Z,8.13
2019-02-25T15:29:44.740Z,8.90
2019-02-25T15:32:15.538Z,11.23
2019-02-25T15:34:46.549Z,14.10
2019-02-25T15:37:16.674Z,9.53
2019-02-25T15:39:46.403Z,10.83
2019-02-25T15:42:17.241Z,10.90
2019-02-25T15:44:49.147Z,16.60
2019-02-25T15:47:18.718Z,8.83
2019-02-25T15:49:49.074Z,10.60
2019-02-25T15:52:20.879Z,9.93
2019-02-25T15:54:50.754Z,9.60
2019-02-25T15:57:20.646Z,13.47
2019-02-25T15:59:51.854Z,17.67
2019-02-25T16:02:21.562Z,13.17
2019-02-25T16:04:51.173Z,10.40
2019-02-25T16:07:23.704Z,10.07
2019-02-25T16:09:54.731Z,8.30
2019-02-25T16:12:26.857Z,9.97
2019-02-25T16:14:55.432Z,13.47
2019-02-25T16:17:25.036Z,9.90
2019-02-25T16:19:55.194Z,16.73
2019-02-25T16:22:26.146Z,7.93
2019-02-25T16:24:56.639Z,12.07
2019-02-25T16:27:27.390Z,18.73
2019-02-25T16:29:58.153Z,11.10
2019-02-25T16:32:28.799Z,13.00
2019-02-25T16:35:00.134Z,8.67
2019-02-25T16:37:31.626Z,12.37
2019-02-25T16:40:03.825Z,11.43
2019-02-25T16:42:34.687Z,11.93
2019-02-25T16:45:07.000Z,11.00
2019-02-25T16:47:37.762Z,26.70
2019-02-25T16:50:07.988Z,15.10
2019-02-25T16:52:40.623Z,17.23
2019-02-25T16:55:09.720Z,20.77
2019-02-25T16:57:41.061Z,16.73
2019-02-25T17:00:14.196Z,15.83
2019-02-25T17:02:44.864Z,12.30
2019-02-25T17:05:14.633Z,14.40
2019-02-25T17:07:45.098Z,17.60
2019-02-25T17:10:19.203Z,18.23
2019-02-25T17:12:50.100Z,19.17
2019-02-25T17:15:20.492Z,15.73
2019-02-25T17:17:52.512Z,16.67
2019-02-25T17:20:23.672Z,23.90
2019-02-25T17:22:54.249Z,23.17
2019-02-25T17:25:26.836Z,19.10
2019-02-25T17:27:56.039Z,17.20
2019-02-25T17:30:26.168Z,18.13
2019-02-25T17:32:56.925Z,59.63
2019-02-25T17:35:28.884Z,65.13
2019-02-25T17:38:00.400Z,37.57
2019-02-25T17:40:30.597Z,33.17
2019-02-25T17:43:00.714Z,22.90
2019-02-25T17:45:32.436Z,22.30
2019-02-25T17:48:05.440Z,29.17
2019-02-25T17:50:35.323Z,30.63
2019-02-25T17:53:07.205Z,26.50
2019-02-25T17:55:37.436Z,23.40
2019-02-25T17:58:08.831Z,22.53
2019-02-25T18:00:42.382Z,24.73
2019-02-25T18:03:12.240Z,21.50
2019-02-25T18:05:44.141Z,19.03
2019-02-25T18:08:15.368Z,28.23
2019-02-25T18:10:46.035Z,20.83
2019-02-25T18:13:17.633Z,16.90
2019-02-25T18:15:49.836Z,20.13
2019-02-25T18:18:21.840Z,19.80
2019-02-25T18:20:53.632Z,18.90
2019-02-25T18:23:24.103Z,26.40
2019-02-25T18:25:57.979Z,22.13
2019-02-25T18:28:26.903Z,29.73
2019-02-25T18:30:59.668Z,36.23
2019-02-25T18:33:29.453Z,25.60
2019-02-25T18:36:01.992Z,18.40
2019-02-25T18:38:32.401Z,24.40
2019-02-25T18:41:04.237Z,22.90
2019-02-25T18:43:34.316Z,22.20
2019-02-25T18:46:07.113Z,19.43
2019-02-25T18:48:36.836Z,17.70
2019-02-25T18:51:11.871Z,20.93
2019-02-25T18:53:39.719Z,22.03
2019-02-25T18:56:11.911Z,21.47
2019-02-25T18:58:42.231Z,22.00
2019-02-25T19:01:13.387Z,26.70
2019-02-25T19:03:44.407Z,23.80
2019-02-25T19:06:17.085Z,27.63
2019-02-25T19:08:47.335Z,30.70
2019-02-25T19:11:20.971Z,55.23
2019-02-25T19:14:03.170Z,45.35
2019-02-25T19:16:32.633Z,29.35
2019-02-25T19:19:04.013Z,29.82
2019-02-25T19:21:35.304Z,24.32
2019-02-25T19:24:07.321Z,35.15
2019-02-25T19:26:38.249Z,21.33
2019-02-25T19:29:09.606Z,24.18
2019-02-25T19:31:42.506Z,24.67
2019-02-25T19:34:15.545Z,29.90
2019-02-25T19:36:43.830Z,24.90
2019-02-25T19:39:16.838Z,32.58
2019-02-25T19:41:49.157Z,74.95
2019-02-25T19:44:21.151Z,357.35
2019-02-25T19:46:53.845Z,209.37
2019-02-25T19:49:24.578Z,38.38
2019-02-25T19:51:54.835Z,25.35
2019-02-25T19:54:25.089Z,27.45
2019-02-25T19:56:57.886Z,59.40
2019-02-25T19:59:29.141Z,83.12
2019-02-25T20:01:59.656Z,65.45
2019-02-25T20:04:33.470Z,42.17
2019-02-25T20:07:01.795Z,35.83
2019-02-25T20:09:32.635Z,36.55
2019-02-25T20:12:03.295Z,40.17
2019-02-25T20:14:33.874Z,37.42
2019-02-25T20:17:04.196Z,40.20
2019-02-25T20:19:34.630Z,34.35
2019-02-25T20:22:04.912Z,33.25
2019-02-25T20:24:39.806Z,29.18
2019-02-25T20:27:07.852Z,28.75
2019-02-25T20:29:38.721Z,36.23
2019-02-25T20:32:16.441Z,40.95
2019-02-25T20:34:49.959Z,30.50
2019-02-25T20:37:22.761Z,26.60
2019-02-25T20:39:51.235Z,25.45
2019-02-25T20:42:22.325Z,27.37
2019-02-25T20:44:55.100Z,28.57
2019-02-25T20:47:24.731Z,26.55
2019-02-25T20:49:56.066Z,28.32
2019-02-25T20:52:26.876Z,23.45
2019-02-25T20:54:57.232Z,22.35
2019-02-25T20:57:27.409Z,19.27
2019-02-25T20:59:57.942Z,24.50
2019-02-25T21:02:28.204Z,19.37
2019-02-25T21:04:58.466Z,22.58
2019-02-25T21:07:29.717Z,18.48
2019-02-25T21:10:00.989Z,19.17
2019-02-25T21:12:32.133Z,27.22
2019-02-25T21:15:02.530Z,22.77
2019-02-25T21:17:33.215Z,23.87
2019-02-25T21:20:07.079Z,25.85
2019-02-25T21:22:38.606Z,23.07
2019-02-25T21:25:10.301Z,27.17
2019-02-25T21:27:41.241Z,24.00
2019-02-25T21:30:14.480Z,34.00
2019-02-25T21:32:45.650Z,21.85
2019-02-25T21:35:17.050Z,26.17
2019-02-25T21:37:48.300Z,31.82
2019-02-25T21:40:20.038Z,19.62
2019-02-25T21:42:51.429Z,27.20
2019-02-25T21:45:24.523Z,21.97
2019-02-25T21:47:56.677Z,23.05
2019-02-25T21:50:28.431Z,23.12
2019-02-25T21:52:57.445Z,24.72
2019-02-25T21:55:28.559Z,19.75
2019-02-25T21:58:00.832Z,28.02
2019-02-25T22:00:32.902Z,26.20
2019-02-25T22:03:06.012Z,20.48
2019-02-25T22:05:35.186Z,25.88
2019-02-25T22:08:06.492Z,19.32
2019-02-25T22:10:39.344Z,20.45
2019-02-25T22:13:11.245Z,24.77
2019-02-25T22:15:42.997Z,24.75
2019-02-25T22:18:14.140Z,23.55
2019-02-25T22:20:47.059Z,27.55
2019-02-25T22:23:16.683Z,16.90
2019-02-25T22:25:47.207Z,21.95
2019-02-25T22:28:17.641Z,24.90
2019-02-25T22:30:49.630Z,22.62
2019-02-25T22:33:27.438Z,21.75
2019-02-25T22:35:51.928Z,25.02
2019-02-25T22:38:22.520Z,27.65
2019-02-25T22:40:53.722Z,23.00
2019-02-25T22:43:24.613Z,29.72
2019-02-25T22:45:58.106Z,71.97
2019-02-25T22:48:27.388Z,80.65
2019-02-25T22:50:59.690Z,46.58
2019-02-25T22:53:29.387Z,63.05
2019-02-25T22:55:59.787Z,46.63
2019-02-25T22:58:31.581Z,42.70
2019-02-25T23:01:18.190Z,30.60
2019-02-25T23:03:52.151Z,30.70
2019-02-25T23:06:23.078Z,34.60
2019-02-25T23:08:55.352Z,36.30
2019-02-25T23:11:26.111Z,30.82
2019-02-25T23:13:56.567Z,36.88
2019-02-25T23:16:26.791Z,28.20
2019-02-25T23:18:57.128Z,24.07
2019-02-25T23:21:30.805Z,27.82
2019-02-25T23:24:01.200Z,21.60
2019-02-25T23:26:31.535Z,25.95
2019-02-25T23:29:01.897Z,24.98
2019-02-25T23:31:32.336Z,30.43
2019-02-25T23:34:02.849Z,36.90
2019-02-25T23:36:33.285Z,40.45
2019-02-25T23:39:03.766Z,32.78
2019-02-25T23:41:36.257Z,40.83
2019-02-25T23:44:07.140Z,40.88
2019-02-25T23:46:40.045Z,41.98
2019-02-25T23:49:10.756Z,50.90
2019-02-25T23:51:41.689Z,56.77
2019-02-25T23:54:16.020Z,53.50
2019-02-25T23:56:49.879Z,42.15
2019-02-25T23:59:22.028Z,43.05
